createdAt,value
2019-04-22T00:02:11.254Z,86.50
2019-04-22T00:04:50.922Z,86.80
2019-04-22T00:07:36.149Z,86.50
2019-04-22T00:10:06.301Z,87.00
2019-04-22T00:15:05.352Z,86.50
2019-04-22T00:20:11.532Z,87.00
2019-04-22T00:22:38.654Z,87.20
2019-04-22T00:25:14.438Z,87.30
2019-04-22T00:27:41.217Z,87.50
2019-04-22T00:30:22.034Z,88.00
2019-04-22T00:32:41.879Z,87.60
2019-04-22T00:35:19.552Z,87.50
2019-04-22T00:37:54.162Z,87.40
2019-04-22T00:40:21.037Z,87.30
2019-04-22T00:42:53.068Z,86.70
2019-04-22T00:45:26.973Z,86.60
2019-04-22T00:47:51.781Z,86.50
2019-04-22T00:50:23.776Z,86.00
2019-04-22T00:53:02.590Z,85.70
2019-04-22T00:55:24.769Z,85.70
2019-04-22T00:57:54.199Z,85.50
2019-04-22T01:00:24.693Z,85.50
2019-04-22T01:02:54.408Z,85.80
2019-04-22T01:05:27.305Z,85.50
2019-04-22T01:08:04.017Z,85.80
2019-04-22T01:10:33.841Z,86.00
2019-04-22T01:12:56.969Z,86.50
2019-04-22T01:15:31.943Z,86.60
2019-04-22T01:17:57.899Z,87.10
2019-04-22T01:20:58.933Z,87.90
2019-04-22T01:23:02.088Z,88.30
2019-04-22T01:25:24.933Z,88.40
2019-04-22T01:27:55.883Z,88.80
2019-04-22T01:30:22.150Z,90.00
2019-04-22T01:32:44.910Z,89.90
2019-04-22T01:35:26.294Z,90.10
2019-04-22T01:37:54.172Z,89.80
2019-04-22T01:40:39.117Z,89.80
2019-04-22T01:43:08.668Z,89.90
2019-04-22T01:45:39.262Z,90.00
2019-04-22T01:48:15.531Z,90.10
2019-04-22T01:50:36.856Z,90.10
2019-04-22T01:53:13.417Z,90.30
2019-04-22T01:55:44.163Z,90.20
2019-04-22T01:58:09.004Z,90.20
2019-04-22T02:00:44.960Z,90.40
2019-04-22T02:03:23.589Z,90.40
2019-04-22T02:05:46.761Z,90.60
2019-04-22T02:08:25.506Z,90.80
2019-04-22T02:10:50.862Z,90.70
2019-04-22T02:13:15.280Z,90.90
2019-04-22T02:15:52.442Z,91.10
2019-04-22T02:18:39.319Z,91.20
2019-04-22T02:24:39.771Z,91.90
2019-04-22T02:27:35.215Z,92.10
2019-04-22T02:30:13.937Z,92.40
2019-04-22T02:33:30.644Z,92.80
2019-04-22T02:38:59.386Z,93.00
2019-04-22T02:41:43.840Z,92.90
2019-04-22T02:44:12.938Z,93.00
2019-04-22T02:49:53.444Z,92.90
2019-04-22T03:00:46.684Z,93.90
2019-04-22T03:06:24.390Z,94.00
2019-04-22T03:08:53.760Z,94.30
2019-04-22T03:14:30.309Z,94.60
2019-04-22T03:17:25.362Z,94.60
2019-04-22T03:23:05.808Z,94.80
2019-04-22T03:28:49.713Z,95.20
2019-04-22T03:32:21.098Z,95.40
2019-04-22T03:35:20.341Z,95.50
2019-04-22T03:37:35.841Z,95.70
2019-04-22T03:43:23.935Z,95.80
2019-04-22T03:46:06.213Z,96.10
2019-04-22T03:48:47.319Z,96.40
2019-04-22T03:51:42.088Z,96.60
2019-04-22T03:54:26.454Z,96.70
2019-04-22T04:05:24.255Z,97.20
2019-04-22T04:15:38.439Z,97.70
2019-04-22T04:18:39.200Z,98.00
2019-04-22T04:24:19.791Z,98.00
2019-04-22T04:27:06.733Z,98.00
2019-04-22T04:29:51.474Z,98.30
2019-04-22T04:32:36.454Z,98.20
2019-04-22T04:38:24.342Z,98.00
2019-04-22T04:40:31.458Z,97.90
2019-04-22T04:42:58.539Z,98.10
2019-04-22T04:51:28.682Z,98.10
2019-04-22T04:53:41.951Z,98.10
2019-04-22T04:59:16.835Z,98.00
2019-04-22T05:02:09.934Z,97.80
2019-04-22T05:04:59.536Z,97.60
2019-04-22T05:07:38.359Z,97.60
2019-04-22T05:10:16.520Z,97.60
2019-04-22T05:13:35.221Z,97.70
2019-04-22T05:19:02.471Z,97.40
2019-04-22T05:21:40.212Z,97.30
2019-04-22T05:24:29.723Z,97.20
2019-04-22T05:33:02.879Z,97.10
2019-04-22T05:35:54.799Z,97.00
2019-04-22T05:38:49.812Z,97.00
2019-04-22T05:44:03.566Z,97.20
2019-04-22T05:46:46.201Z,97.10
2019-04-22T05:52:12.280Z,97.30
2019-04-22T05:54:38.541Z,97.40
2019-04-22T05:57:14.438Z,97.40
2019-04-22T06:00:06.368Z,97.40
2019-04-22T06:06:07.794Z,96.50
2019-04-22T06:08:51.058Z,96.50
2019-04-22T06:11:33.872Z,96.10
2019-04-22T06:14:31.087Z,96.10
2019-04-22T06:17:24.682Z,96.00
2019-04-22T06:20:09.205Z,96.10
2019-04-22T06:23:06.100Z,96.00
2019-04-22T06:26:07.987Z,95.90
2019-04-22T06:31:49.819Z,95.70
2019-04-22T06:34:27.033Z,95.80
2019-04-22T06:40:10.591Z,95.80
2019-04-22T06:42:58.034Z,95.60
2019-04-22T06:45:39.695Z,95.70
2019-04-22T06:48:33.134Z,95.60
2019-04-22T06:51:19.882Z,95.40
2019-04-22T06:54:14.771Z,95.40
2019-04-22T06:57:02.091Z,95.60
2019-04-22T06:59:52.046Z,95.40
2019-04-22T07:02:58.583Z,94.50
2019-04-22T07:05:18.089Z,94.20
2019-04-22T07:08:05.584Z,94.40
2019-04-22T07:10:50.638Z,94.10
2019-04-22T07:13:42.929Z,94.20
2019-04-22T07:16:39.429Z,93.80
2019-04-22T07:19:24.965Z,93.50
2019-04-22T07:22:11.222Z,93.00
2019-04-22T07:24:58.286Z,92.60
2019-04-22T07:27:52.115Z,92.70
2019-04-22T07:30:41.118Z,92.40
2019-04-22T07:36:42.127Z,92.10
2019-04-22T07:39:10.369Z,92.00
2019-04-22T07:41:59.211Z,91.70
2019-04-22T07:44:51.247Z,91.80
2019-04-22T07:47:44.422Z,90.90
2019-04-22T07:50:47.531Z,90.80
2019-04-22T07:53:18.196Z,90.60
2019-04-22T07:56:11.860Z,90.80
2019-04-22T07:59:05.725Z,90.10
2019-04-22T08:01:50.932Z,89.80
2019-04-22T08:04:56.024Z,88.90
2019-04-22T08:07:31.646Z,88.30
2019-04-22T08:13:11.736Z,88.40
2019-04-22T08:18:45.631Z,86.80
2019-04-22T08:21:45.486Z,85.20
2019-04-22T08:24:35.928Z,83.60
2019-04-22T08:27:15.512Z,83.20
2019-04-22T08:30:13.909Z,82.60
2019-04-22T08:33:04.783Z,82.30
2019-04-22T08:38:47.139Z,81.40
2019-04-22T08:44:28.235Z,78.40
2019-04-22T08:52:35.407Z,76.30
2019-04-22T08:55:17.941Z,76.70
2019-04-22T09:00:51.621Z,73.80
2019-04-22T09:06:11.272Z,71.00
2019-04-22T09:08:54.060Z,69.10
2019-04-22T09:14:15.615Z,68.00
2019-04-22T09:17:04.095Z,69.20
2019-04-22T09:19:44.104Z,69.40
2019-04-22T09:22:21.823Z,67.40
2019-04-22T09:24:55.213Z,66.80
2019-04-22T09:27:36.919Z,66.30
2019-04-22T09:30:20.325Z,64.60
2019-04-22T09:33:11.128Z,63.20
2019-04-22T09:36:00.095Z,66.20
2019-04-22T09:41:40.104Z,66.30
2019-04-22T09:44:34.754Z,66.80
2019-04-22T09:47:14.675Z,65.40
2019-04-22T09:49:53.064Z,61.80
2019-04-22T09:52:35.836Z,60.90
2019-04-22T09:55:21.484Z,62.30
2019-04-22T09:58:16.287Z,62.20
2019-04-22T10:04:16.051Z,59.30
2019-04-22T10:07:04.301Z,58.70
2019-04-22T10:12:42.632Z,60.50
2019-04-22T10:15:16.469Z,61.30
2019-04-22T10:17:47.415Z,62.00
2019-04-22T10:20:38.679Z,57.20
2019-04-22T10:23:25.291Z,55.90
2019-04-22T10:26:19.580Z,55.60
2019-04-22T10:29:05.922Z,55.40
2019-04-22T10:31:55.564Z,50.70
2019-04-22T10:37:28.167Z,54.00
2019-04-22T10:40:36.413Z,55.00
2019-04-22T10:43:25.406Z,55.10
2019-04-22T10:46:13.851Z,52.90
2019-04-22T10:49:04.248Z,53.50
2019-04-22T10:51:46.566Z,54.20
2019-04-22T10:54:27.389Z,53.80
2019-04-22T10:59:50.411Z,54.90
2019-04-22T11:05:14.442Z,50.60
2019-04-22T11:08:00.835Z,50.50
2019-04-22T11:10:56.372Z,52.70
2019-04-22T11:16:03.672Z,53.60
2019-04-22T11:18:45.797Z,53.50
2019-04-22T11:21:27.422Z,52.90
2019-04-22T11:24:08.559Z,52.70
2019-04-22T11:26:49.402Z,52.90
2019-04-22T11:29:31.808Z,53.30
2019-04-22T11:32:12.979Z,53.50
2019-04-22T11:34:53.918Z,53.60
2019-04-22T11:40:25.359Z,54.50
2019-04-22T11:43:01.781Z,54.40
2019-04-22T11:45:43.217Z,53.90
2019-04-22T11:48:24.417Z,54.00
2019-04-22T11:51:06.106Z,55.30
2019-04-22T11:53:47.063Z,55.00
2019-04-22T11:56:29.352Z,57.00
2019-04-22T11:59:10.928Z,54.70
2019-04-22T12:01:52.938Z,53.80
2019-04-22T12:04:22.135Z,53.20
2019-04-22T12:07:10.888Z,50.90
2019-04-22T12:09:59.775Z,53.20
2019-04-22T12:12:50.103Z,55.40
2019-04-22T12:15:38.929Z,53.70
2019-04-22T12:18:27.172Z,53.10
2019-04-22T12:21:15.412Z,52.90
2019-04-22T12:24:03.629Z,52.90
2019-04-22T12:26:52.724Z,51.10
2019-04-22T12:30:01.041Z,50.00
2019-04-22T12:32:50.541Z,48.30
2019-04-22T12:35:39.067Z,48.20
2019-04-22T12:38:27.428Z,48.50
2019-04-22T12:41:16.477Z,47.40
2019-04-22T12:44:05.596Z,46.90
2019-04-22T12:46:54.470Z,47.90
2019-04-22T12:49:46.959Z,47.80
2019-04-22T12:55:48.187Z,46.10
2019-04-22T12:58:36.256Z,47.00
2019-04-22T13:01:17.129Z,46.20
2019-04-22T13:04:05.166Z,47.50
2019-04-22T13:06:42.005Z,47.90
2019-04-22T13:09:23.417Z,47.70
2019-04-22T13:12:04.178Z,46.00
2019-04-22T13:14:34.799Z,43.80
2019-04-22T13:17:23.299Z,44.50
2019-04-22T13:20:15.075Z,44.90
2019-04-22T13:23:02.205Z,46.10
2019-04-22T13:25:52.667Z,46.50
2019-04-22T13:28:23.008Z,47.00
2019-04-22T13:30:54.465Z,45.40
2019-04-22T13:33:43.153Z,46.70
2019-04-22T13:36:32.835Z,46.30
2019-04-22T13:39:20.996Z,47.40
2019-04-22T13:42:12.506Z,46.60
2019-04-22T13:45:00.169Z,47.50
2019-04-22T13:48:02.968Z,48.80
2019-04-22T13:54:36.850Z,48.00
2019-04-22T13:56:22.258Z,46.80
2019-04-22T13:58:58.898Z,47.40
2019-04-22T14:04:36.732Z,48.70
2019-04-22T14:10:00.253Z,49.60
2019-04-22T14:12:42.534Z,49.70
2019-04-22T14:15:24.335Z,49.10
2019-04-22T14:18:05.518Z,49.80
2019-04-22T14:20:46.942Z,49.90
2019-04-22T14:23:28.649Z,50.50
2019-04-22T14:26:11.161Z,50.00
2019-04-22T14:28:41.571Z,49.90
2019-04-22T14:31:30.752Z,49.90
2019-04-22T14:34:20.799Z,50.50
2019-04-22T14:37:09.951Z,48.50
2019-04-22T14:40:00.634Z,49.50
2019-04-22T14:43:10.434Z,50.00
2019-04-22T14:46:07.084Z,50.50
2019-04-22T14:48:49.867Z,51.50
2019-04-22T14:51:39.181Z,50.10
2019-04-22T14:54:22.650Z,51.40
2019-04-22T14:56:58.986Z,53.10
2019-04-22T14:59:48.312Z,52.90
2019-04-22T15:02:31.944Z,50.90
2019-04-22T15:05:14.352Z,50.80
2019-04-22T15:07:55.086Z,51.70
2019-04-22T15:13:18.381Z,54.60
2019-04-22T15:16:25.665Z,55.20
2019-04-22T15:19:25.766Z,54.90
2019-04-22T15:22:08.344Z,54.10
2019-04-22T15:24:50.231Z,54.60
2019-04-22T15:27:31.208Z,54.50
2019-04-22T15:30:12.367Z,54.00
2019-04-22T15:32:53.755Z,54.10
2019-04-22T15:38:17.444Z,53.70
2019-04-22T15:40:58.986Z,53.00
2019-04-22T15:43:39.635Z,52.20
2019-04-22T15:46:09.838Z,51.80
2019-04-22T15:48:59.926Z,51.20
2019-04-22T15:51:29.140Z,51.60
2019-04-22T15:54:19.267Z,51.80
2019-04-22T15:57:08.900Z,52.60
2019-04-22T16:00:14.758Z,51.50
2019-04-22T16:02:47.835Z,51.60
2019-04-22T16:05:37.452Z,50.90
2019-04-22T16:08:26.736Z,50.20
2019-04-22T16:11:15.918Z,50.60
2019-04-22T16:14:06.428Z,51.70
2019-04-22T16:16:56.404Z,51.30
2019-04-22T16:19:45.360Z,51.60
2019-04-22T16:22:55.035Z,50.90
2019-04-22T16:29:05.297Z,51.20
2019-04-22T16:31:55.597Z,50.30
2019-04-22T16:34:45.788Z,50.90
2019-04-22T16:37:34.781Z,49.10
2019-04-22T16:40:24.996Z,50.40
2019-04-22T16:43:14.137Z,50.60
2019-04-22T16:46:03.355Z,50.00
2019-04-22T16:48:53.702Z,50.40
2019-04-22T16:51:42.286Z,50.10
2019-04-22T16:54:32.820Z,49.90
2019-04-22T16:57:21.920Z,49.20
2019-04-22T17:00:13.117Z,48.70
2019-04-22T17:03:22.502Z,48.50
2019-04-22T17:06:23.439Z,48.80
2019-04-22T17:09:06.704Z,49.80
2019-04-22T17:14:27.228Z,50.90
2019-04-22T17:16:50.500Z,51.10
2019-04-22T17:19:39.606Z,51.20
2019-04-22T17:22:08.718Z,50.80
2019-04-22T17:24:58.163Z,51.00
2019-04-22T17:27:28.752Z,51.70
2019-04-22T17:30:17.253Z,51.80
2019-04-22T17:33:05.463Z,51.40
2019-04-22T17:35:36.030Z,51.30
2019-04-22T17:38:36.271Z,51.30
2019-04-22T17:41:24.287Z,50.80
2019-04-22T17:44:48.733Z,50.60
2019-04-22T17:47:38.358Z,50.40
2019-04-22T17:53:46.434Z,49.70
2019-04-22T17:56:33.701Z,50.10
2019-04-22T17:59:20.372Z,50.40
2019-04-22T18:02:06.766Z,51.00
2019-04-22T18:04:48.100Z,51.30
2019-04-22T18:07:43.040Z,52.10
2019-04-22T18:13:02.022Z,52.80
2019-04-22T18:15:48.719Z,53.00
2019-04-22T18:18:36.968Z,53.40
2019-04-22T18:21:23.207Z,54.30
2019-04-22T18:24:05.638Z,54.80
2019-04-22T18:29:52.037Z,55.80
2019-04-22T18:32:47.137Z,56.30
2019-04-22T18:35:33.976Z,56.50
2019-04-22T18:38:10.988Z,56.70
2019-04-22T18:40:54.511Z,56.80
2019-04-22T18:43:47.893Z,57.10
2019-04-22T18:46:36.976Z,57.30
2019-04-22T18:49:21.639Z,57.50
2019-04-22T18:52:31.881Z,57.80
2019-04-22T18:55:38.814Z,58.30
2019-04-22T18:58:24.676Z,59.00
2019-04-22T19:04:19.966Z,59.80
2019-04-22T19:07:24.318Z,60.70
2019-04-22T19:10:10.616Z,60.80
2019-04-22T19:15:33.058Z,61.20
2019-04-22T19:18:18.187Z,61.60
2019-04-22T19:26:32.408Z,63.00
2019-04-22T19:31:45.529Z,64.00
2019-04-22T19:37:10.828Z,64.80
2019-04-22T19:48:03.667Z,66.60
2019-04-22T19:50:52.939Z,67.40
2019-04-22T19:53:19.505Z,68.30
2019-04-22T19:55:48.183Z,69.30
2019-04-22T20:01:38.635Z,70.50
2019-04-22T20:07:27.811Z,72.20
2019-04-22T20:10:16.212Z,73.30
2019-04-22T20:12:53.084Z,74.10
2019-04-22T20:15:34.504Z,74.90
2019-04-22T20:21:17.946Z,77.80
2019-04-22T20:23:53.715Z,78.40
2019-04-22T20:26:32.861Z,80.10
2019-04-22T20:29:31.085Z,81.80
2019-04-22T20:32:18.781Z,83.00
2019-04-22T20:35:09.279Z,84.70
2019-04-22T20:37:57.938Z,86.10
2019-04-22T20:40:42.618Z,87.60
2019-04-22T20:43:40.334Z,89.10
2019-04-22T20:46:24.259Z,90.30
2019-04-22T20:49:15.262Z,90.80
2019-04-22T20:52:08.260Z,91.50
2019-04-22T20:54:50.976Z,92.20
2019-04-22T20:57:50.127Z,92.50
2019-04-22T21:00:34.049Z,93.50
2019-04-22T21:03:16.088Z,94.10
2019-04-22T21:06:11.548Z,94.60
2019-04-22T21:09:01.141Z,95.00
2019-04-22T21:11:34.346Z,95.60
2019-04-22T21:14:21.304Z,96.10
2019-04-22T21:17:10.241Z,96.50
2019-04-22T21:19:43.348Z,96.80
2019-04-22T21:22:08.057Z,97.00
2019-04-22T21:24:53.644Z,97.20
2019-04-22T21:27:51.160Z,97.50
2019-04-22T21:30:34.250Z,97.80
2019-04-22T21:33:18.623Z,97.80
2019-04-22T21:36:23.540Z,98.20
2019-04-22T21:39:05.486Z,98.40
2019-04-22T21:41:52.497Z,98.50
2019-04-22T21:44:45.324Z,98.60
2019-04-22T21:50:54.283Z,99.10
2019-04-22T21:53:28.676Z,99.20
2019-04-22T21:56:29.038Z,99.30
2019-04-22T21:59:07.958Z,99.40
2019-04-22T22:01:56.910Z,99.50
2019-04-22T22:04:25.059Z,99.80
2019-04-22T22:06:50.163Z,99.90
2019-04-22T22:09:43.959Z,99.90
2019-04-22T22:12:13.165Z,99.90
2019-04-22T22:14:46.373Z,99.90
2019-04-22T22:17:31.043Z,99.90
2019-04-22T22:20:20.790Z,99.90
2019-04-22T22:23:00.323Z,99.90
2019-04-22T22:25:43.760Z,99.90
2019-04-22T22:31:10.390Z,99.90
2019-04-22T22:33:40.155Z,99.90
2019-04-22T22:36:23.739Z,99.90
2019-04-22T22:39:08.634Z,99.90
2019-04-22T22:41:45.906Z,99.90
2019-04-22T22:44:39.215Z,99.90
2019-04-22T22:47:39.413Z,99.90
2019-04-22T22:50:30.235Z,99.90
2019-04-22T22:56:16.062Z,99.90
2019-04-22T23:01:54.521Z,99.90
2019-04-22T23:04:54.519Z,99.90
2019-04-22T23:07:40.940Z,99.90
2019-04-22T23:10:17.591Z,99.90
2019-04-22T23:12:53.811Z,99.90
2019-04-22T23:15:39.003Z,99.90
2019-04-22T23:18:12.156Z,99.90
2019-04-22T23:21:01.458Z,99.90
2019-04-22T23:24:12.933Z,99.90
2019-04-22T23:30:15.985Z,99.90
2019-04-22T23:33:09.902Z,99.90
2019-04-22T23:44:14.232Z,99.90
2019-04-22T23:47:11.207Z,99.90
2019-04-22T23:50:09.145Z,99.90
2019-04-22T23:53:02.259Z,99.90
2019-04-22T23:55:33.367Z,99.90
2019-04-22T23:58:38.289Z,99.90
